createdAt,value
2023-05-24T00:00:41.644Z,0.00
2023-05-24T00:01:41.540Z,0.00
2023-05-24T00:02:41.469Z,0.00
2023-05-24T00:03:41.491Z,0.00
2023-05-24T00:04:41.259Z,0.00
2023-05-24T00:05:41.342Z,0.00
2023-05-24T00:06:41.181Z,0.00
2023-05-24T00:07:41.053Z,0.00
2023-05-24T00:08:41.063Z,0.00
2023-05-24T00:09:40.962Z,0.00
2023-05-24T00:10:41.147Z,0.00
2023-05-24T00:11:41.842Z,0.00
2023-05-24T00:12:40.794Z,0.00
2023-05-24T00:13:40.700Z,0.00
2023-05-24T00:14:40.624Z,0.00
2023-05-24T00:15:40.592Z,0.00
2023-05-24T00:16:40.566Z,0.00
2023-05-24T00:17:40.459Z,0.00
2023-05-24T00:18:40.422Z,0.00
2023-05-24T00:19:40.290Z,0.00
2023-05-24T00:20:40.576Z,0.00
2023-05-24T00:21:40.217Z,0.00
2023-05-24T00:22:40.157Z,0.00
2023-05-24T00:23:40.051Z,0.00
2023-05-24T00:24:39.969Z,0.00
2023-05-24T00:25:40.527Z,0.00
2023-05-24T00:26:39.898Z,0.00
2023-05-24T00:27:39.830Z,0.00
2023-05-24T00:28:39.750Z,0.00
2023-05-24T00:29:39.661Z,0.00
2023-05-24T00:30:39.762Z,0.00
2023-05-24T00:31:39.680Z,0.00
2023-05-24T00:32:39.554Z,0.00
2023-05-24T00:33:39.428Z,0.00
2023-05-24T00:34:39.344Z,0.00
2023-05-24T00:35:39.301Z,0.00
2023-05-24T00:36:39.243Z,0.00
2023-05-24T00:37:39.242Z,0.00
2023-05-24T00:38:39.153Z,0.00
2023-05-24T00:39:39.050Z,0.00
2023-05-24T00:40:38.982Z,0.00
2023-05-24T00:41:38.927Z,0.00
2023-05-24T00:42:38.894Z,0.00
2023-05-24T00:43:38.799Z,0.00
2023-05-24T00:44:38.786Z,0.00
2023-05-24T00:45:38.752Z,0.00
2023-05-24T00:46:38.645Z,0.00
2023-05-24T00:47:38.581Z,0.00
2023-05-24T00:48:38.482Z,0.00
2023-05-24T00:49:38.454Z,0.00
2023-05-24T00:50:38.354Z,0.00
2023-05-24T00:51:38.299Z,0.00
2023-05-24T00:52:38.229Z,0.00
2023-05-24T00:53:38.219Z,0.00
2023-05-24T00:54:38.102Z,0.00
2023-05-24T00:55:38.064Z,0.00
2023-05-24T00:56:38.000Z,0.00
2023-05-24T00:57:37.914Z,0.00
2023-05-24T00:58:37.909Z,0.00
2023-05-24T00:59:37.818Z,0.00
2023-05-24T01:00:37.727Z,0.00
2023-05-24T01:01:37.738Z,0.00
2023-05-24T01:02:37.735Z,0.00
2023-05-24T01:03:37.718Z,0.00
2023-05-24T01:04:37.526Z,0.00
2023-05-24T01:05:38.027Z,0.00
2023-05-24T01:06:37.377Z,0.00
2023-05-24T01:07:37.826Z,0.00
2023-05-24T01:08:38.855Z,0.00
2023-05-24T01:09:37.185Z,0.00
2023-05-24T01:10:37.988Z,0.00
2023-05-24T01:11:38.029Z,0.00
2023-05-24T01:12:36.967Z,0.00
2023-05-24T01:13:36.912Z,0.00
2023-05-24T01:14:36.896Z,0.00
2023-05-24T01:15:36.898Z,0.00
2023-05-24T01:16:36.842Z,0.00
2023-05-24T01:17:36.728Z,0.00
2023-05-24T01:18:36.602Z,0.00
2023-05-24T01:19:36.604Z,0.00
2023-05-24T01:20:36.482Z,0.00
2023-05-24T01:21:36.444Z,0.00
2023-05-24T01:22:36.386Z,0.00
2023-05-24T01:23:36.284Z,0.00
2023-05-24T01:24:36.220Z,0.00
2023-05-24T01:25:36.188Z,0.00
2023-05-24T01:26:36.192Z,0.00
2023-05-24T01:27:36.013Z,0.00
2023-05-24T01:28:35.942Z,0.00
2023-05-24T01:29:35.975Z,0.00
2023-05-24T01:30:36.559Z,0.00
2023-05-24T01:31:35.869Z,0.00
2023-05-24T01:32:35.772Z,0.00
2023-05-24T01:33:35.634Z,0.00
2023-05-24T01:34:35.578Z,0.00
2023-05-24T01:35:35.531Z,0.00
2023-05-24T01:36:35.583Z,0.00
2023-05-24T01:37:35.453Z,0.00
2023-05-24T01:38:35.368Z,0.00
2023-05-24T01:39:35.293Z,0.00
2023-05-24T01:40:35.200Z,0.00
2023-05-24T01:41:35.130Z,0.00
2023-05-24T01:42:35.108Z,0.00
2023-05-24T01:43:35.020Z,0.00
2023-05-24T01:44:34.947Z,0.00
2023-05-24T01:45:34.914Z,0.00
2023-05-24T01:46:34.912Z,0.00
2023-05-24T01:47:34.876Z,0.00
2023-05-24T01:48:34.713Z,0.00
2023-05-24T01:49:34.669Z,0.00
2023-05-24T01:50:34.598Z,0.00
2023-05-24T01:51:34.516Z,0.00
2023-05-24T01:52:34.500Z,0.00
2023-05-24T01:53:34.411Z,0.00
2023-05-24T01:54:34.315Z,0.00
2023-05-24T01:55:34.234Z,0.00
2023-05-24T01:56:34.197Z,0.00
2023-05-24T01:57:34.235Z,0.00
2023-05-24T01:58:34.097Z,0.00
2023-05-24T01:59:34.039Z,0.00
2023-05-24T02:00:34.000Z,0.00
2023-05-24T02:01:34.020Z,0.00
2023-05-24T02:02:33.882Z,0.00
2023-05-24T02:03:33.823Z,0.00
2023-05-24T02:04:33.700Z,0.00
2023-05-24T02:05:33.650Z,0.00
2023-05-24T02:06:33.626Z,0.00
2023-05-24T02:07:33.526Z,0.00
2023-05-24T02:08:33.406Z,0.00
2023-05-24T02:09:33.348Z,0.00
2023-05-24T02:10:33.337Z,0.00
2023-05-24T02:11:33.310Z,0.00
2023-05-24T02:12:33.271Z,0.00
2023-05-24T02:13:33.189Z,0.00
2023-05-24T02:14:33.053Z,0.00
2023-05-24T02:15:32.967Z,0.00
2023-05-24T02:16:33.139Z,0.00
2023-05-24T02:17:32.894Z,0.00
2023-05-24T02:18:32.778Z,0.00
2023-05-24T02:19:32.722Z,0.00
2023-05-24T02:20:33.362Z,0.00
2023-05-24T02:21:32.641Z,0.00
2023-05-24T02:22:32.579Z,0.00
2023-05-24T02:23:32.556Z,0.00
2023-05-24T02:24:32.428Z,0.00
2023-05-24T02:25:32.356Z,0.00
2023-05-24T02:26:32.273Z,0.00
2023-05-24T02:27:32.265Z,0.00
2023-05-24T02:28:32.358Z,0.00
2023-05-24T02:29:32.176Z,0.00
2023-05-24T02:30:32.081Z,0.00
2023-05-24T02:31:32.027Z,0.00
2023-05-24T02:32:31.953Z,0.00
2023-05-24T02:33:32.811Z,0.00
2023-05-24T02:34:32.790Z,0.00
2023-05-24T02:35:31.723Z,0.00
2023-05-24T02:36:31.691Z,0.00
2023-05-24T02:37:31.607Z,0.00
2023-05-24T02:38:31.578Z,0.00
2023-05-24T02:39:31.611Z,0.00
2023-05-24T02:40:31.416Z,0.00
2023-05-24T02:41:31.371Z,0.00
2023-05-24T02:42:31.319Z,0.00
2023-05-24T02:43:31.234Z,0.00
2023-05-24T02:44:31.160Z,0.00
2023-05-24T02:45:31.045Z,1.00
2023-05-24T02:46:31.152Z,0.00
2023-05-24T02:47:30.939Z,1.00
2023-05-24T02:48:30.880Z,1.00
2023-05-24T02:49:30.811Z,1.00
2023-05-24T02:50:30.769Z,1.00
2023-05-24T02:51:30.686Z,1.00
2023-05-24T02:52:30.608Z,2.00
2023-05-24T02:53:30.551Z,2.00
2023-05-24T02:54:30.481Z,2.00
2023-05-24T02:55:30.411Z,1.00
2023-05-24T02:56:30.378Z,1.00
2023-05-24T02:57:30.269Z,3.00
2023-05-24T02:58:30.252Z,4.00
2023-05-24T02:59:30.182Z,3.00
2023-05-24T03:00:30.060Z,7.00
2023-05-24T03:01:30.083Z,7.00
2023-05-24T03:02:30.019Z,6.00
2023-05-24T03:03:30.033Z,8.00
2023-05-24T03:04:29.838Z,8.00
2023-05-24T03:05:29.776Z,9.00
2023-05-24T03:06:30.508Z,5.00
2023-05-24T03:07:30.523Z,12.00
2023-05-24T03:08:29.626Z,10.00
2023-05-24T03:09:29.722Z,15.00
2023-05-24T03:10:29.470Z,14.00
2023-05-24T03:11:29.404Z,16.00
2023-05-24T03:12:29.330Z,17.00
2023-05-24T03:13:29.253Z,19.00
2023-05-24T03:14:29.205Z,21.00
2023-05-24T03:15:29.484Z,25.00
2023-05-24T03:16:29.134Z,25.00
2023-05-24T03:17:29.079Z,30.00
2023-05-24T03:18:29.110Z,32.00
2023-05-24T03:19:28.917Z,36.00
2023-05-24T03:20:28.994Z,37.00
2023-05-24T03:21:28.737Z,39.00
2023-05-24T03:22:28.701Z,44.00
2023-05-24T03:23:28.664Z,49.00
2023-05-24T03:24:28.655Z,52.00
2023-05-24T03:25:28.510Z,53.00
2023-05-24T03:26:28.423Z,53.00
2023-05-24T03:27:28.391Z,60.00
2023-05-24T03:28:28.345Z,65.00
2023-05-24T03:29:28.267Z,65.00
2023-05-24T03:30:28.186Z,75.00
2023-05-24T03:31:28.200Z,85.00
2023-05-24T03:32:28.823Z,88.00
2023-05-24T03:33:28.007Z,92.00
2023-05-24T03:34:27.943Z,99.00
2023-05-24T03:35:28.026Z,105.00
2023-05-24T03:36:27.795Z,113.00
2023-05-24T03:37:27.793Z,122.00
2023-05-24T03:38:27.714Z,118.00
2023-05-24T03:39:27.660Z,128.00
2023-05-24T03:40:27.582Z,136.00
2023-05-24T03:41:27.551Z,145.00
2023-05-24T03:42:27.434Z,154.00
2023-05-24T03:43:27.452Z,154.00
2023-05-24T03:44:27.307Z,166.00
2023-05-24T03:45:37.651Z,176.00
2023-05-24T03:46:27.229Z,184.00
2023-05-24T03:47:27.173Z,189.00
2023-05-24T03:48:27.066Z,192.00
2023-05-24T03:49:26.975Z,196.00
2023-05-24T03:50:27.017Z,206.00
2023-05-24T03:51:26.880Z,211.00
2023-05-24T03:52:26.777Z,222.00
2023-05-24T03:53:26.782Z,224.00
2023-05-24T03:54:26.699Z,215.00
2023-05-24T03:55:26.618Z,216.00
2023-05-24T03:56:26.691Z,227.00
2023-05-24T03:57:26.462Z,243.00
2023-05-24T03:58:26.397Z,248.00
2023-05-24T03:59:26.356Z,250.00
2023-05-24T04:00:26.336Z,245.00
2023-05-24T04:01:33.296Z,251.00
2023-05-24T04:02:26.366Z,275.00
2023-05-24T04:03:26.457Z,273.00
2023-05-24T04:04:26.784Z,288.00
2023-05-24T04:05:25.949Z,305.00
2023-05-24T04:06:25.960Z,301.00
2023-05-24T04:07:25.848Z,273.00
2023-05-24T04:08:25.813Z,247.00
2023-05-24T04:09:25.693Z,245.00
2023-05-24T04:10:25.721Z,297.00
2023-05-24T04:11:25.594Z,289.00
2023-05-24T04:12:25.530Z,323.00
2023-05-24T04:13:25.502Z,334.00
2023-05-24T04:14:25.403Z,357.00
2023-05-24T04:15:25.389Z,378.00
2023-05-24T04:16:25.334Z,340.00
2023-05-24T04:17:26.039Z,293.00
2023-05-24T04:18:25.484Z,333.00
2023-05-24T04:19:25.060Z,355.00
2023-05-24T04:20:25.101Z,312.00
2023-05-24T04:21:24.966Z,330.00
2023-05-24T04:22:25.891Z,330.00
2023-05-24T04:23:24.898Z,310.00
2023-05-24T04:24:24.761Z,318.00
2023-05-24T04:25:24.722Z,331.00
2023-05-24T04:26:24.642Z,334.00
2023-05-24T04:27:24.621Z,303.00
2023-05-24T04:28:24.741Z,319.00
2023-05-24T04:29:24.477Z,317.00
2023-05-24T04:30:24.428Z,284.00
2023-05-24T04:31:24.392Z,332.00
2023-05-24T04:32:24.296Z,316.00
2023-05-24T04:33:24.191Z,266.00
2023-05-24T04:34:24.166Z,348.00
2023-05-24T04:35:24.063Z,330.00
2023-05-24T04:36:24.057Z,338.00
2023-05-24T04:37:23.975Z,309.00
2023-05-24T04:38:23.948Z,297.00
2023-05-24T04:39:23.800Z,315.00
2023-05-24T04:40:23.764Z,302.00
2023-05-24T04:41:23.685Z,319.00
2023-05-24T04:42:23.616Z,329.00
2023-05-24T04:43:23.578Z,307.00
2023-05-24T04:44:23.665Z,291.00
2023-05-24T04:45:23.466Z,316.00
2023-05-24T04:46:23.392Z,338.00
2023-05-24T04:47:23.366Z,323.00
2023-05-24T04:48:23.254Z,290.00
2023-05-24T04:49:23.219Z,255.00
2023-05-24T04:50:23.185Z,238.00
2023-05-24T04:51:23.078Z,263.00
2023-05-24T04:52:22.989Z,253.00
2023-05-24T04:53:22.951Z,255.00
2023-05-24T04:54:22.941Z,260.00
2023-05-24T04:55:22.816Z,279.00
2023-05-24T04:56:22.782Z,244.00
2023-05-24T04:57:22.695Z,253.00
2023-05-24T04:58:22.632Z,223.00
2023-05-24T04:59:22.566Z,178.00
2023-05-24T05:00:22.509Z,202.00
2023-05-24T05:01:22.549Z,200.00
2023-05-24T05:02:22.414Z,214.00
2023-05-24T05:03:22.375Z,283.00
2023-05-24T05:04:22.286Z,294.00
2023-05-24T05:05:22.211Z,273.00
2023-05-24T05:06:22.127Z,263.00
2023-05-24T05:07:22.057Z,259.00
2023-05-24T05:08:22.004Z,307.00
2023-05-24T05:09:22.767Z,310.00
2023-05-24T05:10:23.759Z,355.00
2023-05-24T05:11:21.889Z,384.00
2023-05-24T05:12:21.733Z,422.00
2023-05-24T05:13:21.675Z,399.00
2023-05-24T05:14:21.594Z,515.00
2023-05-24T05:15:21.592Z,736.00
2023-05-24T05:16:21.516Z,554.00
2023-05-24T05:17:21.450Z,608.00
2023-05-24T05:18:21.360Z,973.00
2023-05-24T05:19:21.303Z,660.00
2023-05-24T05:20:21.338Z,682.00
2023-05-24T05:21:21.210Z,783.00
2023-05-24T05:22:21.129Z,681.00
2023-05-24T05:23:21.063Z,602.00
2023-05-24T05:24:21.186Z,675.00
2023-05-24T05:25:21.231Z,826.00
2023-05-24T05:26:20.889Z,757.00
2023-05-24T05:27:20.841Z,825.00
2023-05-24T05:28:20.826Z,886.00
2023-05-24T05:29:22.194Z,959.00
2023-05-24T05:30:20.635Z,1044.00
2023-05-24T05:31:20.572Z,1170.00
2023-05-24T05:32:20.542Z,987.00
2023-05-24T05:33:20.599Z,741.00
2023-05-24T05:34:20.390Z,747.00
2023-05-24T05:35:20.325Z,850.00
2023-05-24T05:36:20.254Z,1086.00
2023-05-24T05:37:20.216Z,997.00
2023-05-24T05:38:20.083Z,719.00
2023-05-24T05:39:20.070Z,859.00
2023-05-24T05:40:19.987Z,644.00
2023-05-24T05:41:19.953Z,697.00
2023-05-24T05:42:19.822Z,754.00
2023-05-24T05:43:19.887Z,607.00
2023-05-24T05:44:19.700Z,532.00
2023-05-24T05:45:19.664Z,530.00
2023-05-24T05:46:19.661Z,434.00
2023-05-24T05:47:19.547Z,400.00
2023-05-24T05:48:19.576Z,611.00
2023-05-24T05:49:19.399Z,591.00
2023-05-24T05:50:19.358Z,460.00
2023-05-24T05:51:19.328Z,330.00
2023-05-24T05:52:19.267Z,436.00
2023-05-24T05:53:19.172Z,617.00
2023-05-24T05:54:19.172Z,525.00
2023-05-24T05:55:19.068Z,523.00
2023-05-24T05:56:18.956Z,421.00
2023-05-24T05:57:18.946Z,266.00
2023-05-24T05:58:18.888Z,287.00
2023-05-24T05:59:18.937Z,395.00
2023-05-24T06:00:18.731Z,480.00
2023-05-24T06:01:18.673Z,444.00
2023-05-24T06:02:18.609Z,292.00
2023-05-24T06:03:18.747Z,280.00
2023-05-24T06:04:19.257Z,354.00
2023-05-24T06:05:18.470Z,486.00
2023-05-24T06:06:18.373Z,491.00
2023-05-24T06:07:18.258Z,574.00
2023-05-24T06:08:18.960Z,424.00
2023-05-24T06:09:18.181Z,623.00
2023-05-24T06:10:18.152Z,661.00
2023-05-24T06:11:18.068Z,835.00
2023-05-24T06:12:17.989Z,929.00
2023-05-24T06:13:18.771Z,722.00
2023-05-24T06:14:17.898Z,837.00
2023-05-24T06:15:17.807Z,922.00
2023-05-24T06:16:17.797Z,996.00
2023-05-24T06:17:18.474Z,798.00
2023-05-24T06:18:17.589Z,720.00
2023-05-24T06:19:17.526Z,774.00
2023-05-24T06:20:17.521Z,1228.00
2023-05-24T06:21:17.412Z,994.00
2023-05-24T06:22:17.969Z,642.00
2023-05-24T06:23:17.340Z,709.00
2023-05-24T06:24:17.251Z,702.00
2023-05-24T06:25:17.159Z,736.00
2023-05-24T06:26:17.160Z,803.00
2023-05-24T06:27:17.061Z,1139.00
2023-05-24T06:28:16.956Z,773.00
2023-05-24T06:29:16.908Z,882.00
2023-05-24T06:30:16.865Z,2235.00
2023-05-24T06:31:16.821Z,2463.00
2023-05-24T06:32:16.709Z,2019.00
2023-05-24T06:33:17.474Z,2343.00
2023-05-24T06:34:16.592Z,1851.00
2023-05-24T06:35:16.539Z,1211.00
2023-05-24T06:36:16.526Z,1158.00
2023-05-24T06:37:16.439Z,1483.00
2023-05-24T06:38:16.305Z,1143.00
2023-05-24T06:39:16.289Z,726.00
2023-05-24T06:40:16.233Z,978.00
2023-05-24T06:41:16.148Z,1340.00
2023-05-24T06:42:16.291Z,1665.00
2023-05-24T06:43:16.027Z,1667.00
2023-05-24T06:44:15.957Z,1257.00
2023-05-24T06:45:15.860Z,1454.00
2023-05-24T06:46:15.860Z,1223.00
2023-05-24T06:47:15.935Z,749.00
2023-05-24T06:48:15.767Z,697.00
2023-05-24T06:49:15.645Z,992.00
2023-05-24T06:50:15.584Z,1027.00
2023-05-24T06:51:15.569Z,1369.00
2023-05-24T06:52:15.465Z,1447.00
2023-05-24T06:53:15.393Z,1807.00
2023-05-24T06:54:15.361Z,1819.00
2023-05-24T06:55:15.261Z,1484.00
2023-05-24T06:56:15.317Z,1536.00
2023-05-24T06:57:15.128Z,1492.00
2023-05-24T06:58:15.077Z,1145.00
2023-05-24T06:59:15.023Z,656.00
2023-05-24T07:00:14.975Z,1109.00
2023-05-24T07:01:14.942Z,1675.00
2023-05-24T07:02:14.835Z,1601.00
2023-05-24T07:03:14.815Z,1299.00
2023-05-24T07:04:14.806Z,1513.00
2023-05-24T07:05:14.666Z,1334.00
2023-05-24T07:06:14.615Z,938.00
2023-05-24T07:07:14.513Z,894.00
2023-05-24T07:08:14.422Z,818.00
2023-05-24T07:09:14.457Z,849.00
2023-05-24T07:10:14.340Z,1489.00
2023-05-24T07:11:14.326Z,1676.00
2023-05-24T07:12:14.211Z,1727.00
2023-05-24T07:13:14.159Z,1388.00
2023-05-24T07:14:14.051Z,1397.00
2023-05-24T07:15:14.043Z,2057.00
2023-05-24T07:16:14.160Z,2082.00
2023-05-24T07:17:14.610Z,1731.00
2023-05-24T07:18:13.831Z,1947.00
2023-05-24T07:19:13.870Z,1821.00
2023-05-24T07:20:13.782Z,1439.00
2023-05-24T07:21:13.914Z,1293.00
2023-05-24T07:22:13.619Z,1190.00
2023-05-24T07:23:13.537Z,767.00
2023-05-24T07:24:16.009Z,4991.00
2023-05-24T07:25:13.415Z,3809.00
2023-05-24T07:26:13.328Z,2800.00
2023-05-24T07:27:13.297Z,1642.00
2023-05-24T07:28:13.441Z,1523.00
2023-05-24T07:29:13.351Z,1848.00
2023-05-24T07:30:23.701Z,1699.00
2023-05-24T07:31:13.014Z,2275.00
2023-05-24T07:32:13.029Z,2727.00
2023-05-24T07:33:12.921Z,2061.00
2023-05-24T07:34:12.798Z,1750.00
2023-05-24T07:35:12.782Z,1783.00
2023-05-24T07:36:12.772Z,1641.00
2023-05-24T07:37:12.616Z,1358.00
2023-05-24T07:38:12.638Z,1414.00
2023-05-24T07:39:12.576Z,1577.00
2023-05-24T07:40:12.464Z,1950.00
2023-05-24T07:41:12.428Z,2034.00
2023-05-24T07:42:12.324Z,1714.00
2023-05-24T07:43:12.248Z,1491.00
2023-05-24T07:44:12.268Z,1576.00
2023-05-24T07:45:12.243Z,1119.00
2023-05-24T07:46:12.064Z,2172.00
2023-05-24T07:47:12.184Z,4796.00
2023-05-24T07:48:12.057Z,1539.00
2023-05-24T07:49:11.888Z,2619.00
2023-05-24T07:50:11.851Z,4579.00
2023-05-24T07:51:11.820Z,1283.00
2023-05-24T07:52:11.722Z,4136.00
2023-05-24T07:53:11.645Z,9141.00
2023-05-24T07:54:11.564Z,24442.00
2023-05-24T07:55:11.489Z,15974.00
2023-05-24T07:56:11.516Z,10362.00
2023-05-24T07:57:11.358Z,10627.00
2023-05-24T07:58:11.344Z,9327.00
2023-05-24T07:59:11.288Z,8843.00
2023-05-24T08:00:11.184Z,10646.00
2023-05-24T08:01:11.132Z,3561.00
2023-05-24T08:02:11.113Z,9741.00
2023-05-24T08:03:11.067Z,9895.00
2023-05-24T08:04:10.975Z,8159.00
2023-05-24T08:05:10.898Z,8375.00
2023-05-24T08:06:10.829Z,10872.00
2023-05-24T08:07:11.162Z,6799.00
2023-05-24T08:08:11.287Z,9487.00
2023-05-24T08:09:10.657Z,8773.00
2023-05-24T08:10:10.571Z,10927.00
2023-05-24T08:11:10.543Z,8228.00
2023-05-24T08:12:10.427Z,9245.00
2023-05-24T08:13:11.065Z,8978.00
2023-05-24T08:14:10.314Z,8910.00
2023-05-24T08:15:10.255Z,10256.00
2023-05-24T08:16:10.238Z,6310.00
2023-05-24T08:17:10.138Z,6852.00
2023-05-24T08:18:10.187Z,10116.00
2023-05-24T08:19:09.998Z,7958.00
2023-05-24T08:20:10.276Z,6362.00
2023-05-24T08:21:09.939Z,1692.00
2023-05-24T08:22:10.718Z,8810.00
2023-05-24T08:23:09.772Z,9427.00
2023-05-24T08:24:09.829Z,9256.00
2023-05-24T08:25:09.668Z,9842.00
2023-05-24T08:26:09.566Z,5417.00
2023-05-24T08:27:09.501Z,3146.00
2023-05-24T08:28:09.526Z,2736.00
2023-05-24T08:29:09.513Z,2571.00
2023-05-24T08:30:09.342Z,3793.00
2023-05-24T08:31:09.496Z,4812.00
2023-05-24T08:32:09.377Z,4273.00
2023-05-24T08:33:09.160Z,3187.00
2023-05-24T08:34:09.130Z,2579.00
2023-05-24T08:35:20.153Z,2256.00
2023-05-24T08:36:09.000Z,1876.00
2023-05-24T08:37:09.919Z,1659.00
2023-05-24T08:38:08.830Z,1585.00
2023-05-24T08:39:08.793Z,1677.00
2023-05-24T08:40:08.784Z,1751.00
2023-05-24T08:41:08.747Z,1717.00
2023-05-24T08:42:10.321Z,1633.00
2023-05-24T08:43:08.536Z,1470.00
2023-05-24T08:44:08.518Z,1333.00
2023-05-24T08:45:08.412Z,1260.00
2023-05-24T08:46:08.411Z,1300.00
2023-05-24T08:47:08.302Z,1298.00
2023-05-24T08:48:08.275Z,1345.00
2023-05-24T08:49:08.396Z,1332.00
2023-05-24T08:50:08.150Z,1311.00
2023-05-24T08:51:08.285Z,1200.00
2023-05-24T08:52:08.085Z,1120.00
2023-05-24T08:53:08.011Z,1064.00
2023-05-24T08:54:07.902Z,1072.00
2023-05-24T08:55:07.839Z,1133.00
2023-05-24T08:56:07.724Z,1218.00
2023-05-24T08:57:07.759Z,1401.00
2023-05-24T08:58:07.644Z,1546.00
2023-05-24T08:59:07.986Z,1804.00
2023-05-24T09:00:07.554Z,1949.00
2023-05-24T09:01:07.934Z,2351.00
2023-05-24T09:02:07.504Z,1533.00
2023-05-24T09:03:07.453Z,5843.00
2023-05-24T09:04:07.331Z,6754.00
2023-05-24T09:05:07.170Z,5436.00
2023-05-24T09:06:07.103Z,4104.00
2023-05-24T09:07:07.032Z,10005.00
2023-05-24T09:08:07.208Z,10635.00
2023-05-24T09:09:07.478Z,11561.00
2023-05-24T09:10:06.947Z,10030.00
2023-05-24T09:11:06.821Z,7695.00
2023-05-24T09:12:06.734Z,5896.00
2023-05-24T09:13:06.753Z,4619.00
2023-05-24T09:14:06.721Z,4469.00
2023-05-24T09:15:06.864Z,4434.00
2023-05-24T09:16:06.897Z,4422.00
2023-05-24T09:17:06.554Z,4558.00
2023-05-24T09:18:08.141Z,4744.00
2023-05-24T09:19:07.452Z,3866.00
2023-05-24T09:20:06.451Z,7258.00
2023-05-24T09:21:06.219Z,5310.00
2023-05-24T09:22:08.452Z,5251.00
2023-05-24T09:23:10.525Z,3959.00
2023-05-24T09:24:08.982Z,3616.00
2023-05-24T09:25:09.190Z,5720.00
2023-05-24T09:26:05.895Z,4371.00
2023-05-24T09:27:05.801Z,5689.00
2023-05-24T09:28:05.763Z,4604.00
2023-05-24T09:29:05.734Z,3329.00
2023-05-24T09:30:05.676Z,4058.00
2023-05-24T09:31:07.913Z,3953.00
2023-05-24T09:32:05.547Z,1653.00
2023-05-24T09:33:05.580Z,10100.00
2023-05-24T09:34:05.510Z,6514.00
2023-05-24T09:35:05.358Z,8792.00
2023-05-24T09:36:05.298Z,8393.00
2023-05-24T09:37:05.349Z,8649.00
2023-05-24T09:38:05.962Z,8691.00
2023-05-24T09:39:05.168Z,7634.00
2023-05-24T09:40:05.960Z,11031.00
2023-05-24T09:41:05.041Z,10894.00
2023-05-24T09:42:04.954Z,4255.00
2023-05-24T09:43:04.876Z,27567.00
2023-05-24T09:44:04.775Z,11226.00
2023-05-24T09:45:04.796Z,3371.00
2023-05-24T09:46:04.778Z,10877.00
2023-05-24T09:47:05.630Z,17006.00
2023-05-24T09:48:04.606Z,56921.00
2023-05-24T09:49:04.473Z,5400.00
2023-05-24T09:50:04.412Z,2059.00
2023-05-24T09:51:04.409Z,18976.00
2023-05-24T09:52:04.379Z,6715.00
2023-05-24T09:53:04.259Z,3180.00
2023-05-24T09:54:04.177Z,3144.00
2023-05-24T09:55:04.114Z,8522.00
2023-05-24T09:56:04.102Z,6632.00
2023-05-24T09:57:04.922Z,2166.00
2023-05-24T09:58:03.917Z,7284.00
2023-05-24T09:59:03.892Z,9628.00
2023-05-24T10:00:03.807Z,5782.00
2023-05-24T10:01:03.812Z,3429.00
2023-05-24T10:02:03.716Z,2762.00
2023-05-24T10:03:03.698Z,2530.00
2023-05-24T10:04:06.171Z,2393.00
2023-05-24T10:05:03.502Z,2420.00
2023-05-24T10:06:03.432Z,2782.00
2023-05-24T10:07:03.450Z,2805.00
2023-05-24T10:08:04.257Z,2398.00
2023-05-24T10:09:03.293Z,5689.00
2023-05-24T10:10:04.755Z,4279.00
2023-05-24T10:11:03.125Z,4656.00
2023-05-24T10:12:03.097Z,4815.00
2023-05-24T10:13:03.131Z,4119.00
2023-05-24T10:14:02.960Z,3522.00
2023-05-24T10:15:02.921Z,5671.00
2023-05-24T10:16:02.886Z,2691.00
2023-05-24T10:17:02.898Z,9404.00
2023-05-24T10:18:02.831Z,7788.00
2023-05-24T10:19:02.662Z,4275.00
2023-05-24T10:20:02.668Z,2064.00
2023-05-24T10:21:02.710Z,7630.00
2023-05-24T10:22:02.462Z,78168.00
2023-05-24T10:23:02.429Z,65540.00
2023-05-24T10:24:02.412Z,17850.00
2023-05-24T10:25:02.298Z,8264.00
2023-05-24T10:26:02.381Z,6616.00
2023-05-24T10:27:02.963Z,6193.00
2023-05-24T10:28:02.111Z,5825.00
2023-05-24T10:29:02.027Z,5644.00
2023-05-24T10:30:02.004Z,5526.00
2023-05-24T10:31:02.016Z,5471.00
2023-05-24T10:32:01.937Z,5445.00
2023-05-24T10:33:01.822Z,5618.00
2023-05-24T10:34:07.625Z,3735.00
2023-05-24T10:35:01.693Z,3308.00
2023-05-24T10:36:01.587Z,991.00
2023-05-24T10:37:01.569Z,5551.00
2023-05-24T10:38:01.515Z,5559.00
2023-05-24T10:39:01.454Z,6334.00
2023-05-24T10:40:01.354Z,4338.00
2023-05-24T10:41:01.274Z,3480.00
2023-05-24T10:42:01.292Z,5526.00
2023-05-24T10:43:01.173Z,5347.00
2023-05-24T10:45:01.203Z,5548.00
2023-05-24T10:46:01.025Z,5174.00
2023-05-24T10:47:00.932Z,5218.00
2023-05-24T10:48:00.910Z,5086.00
2023-05-24T10:49:00.831Z,5297.00
2023-05-24T10:50:00.802Z,5021.00
2023-05-24T10:51:00.768Z,4913.00
2023-05-24T10:52:00.659Z,4844.00
2023-05-24T10:53:00.564Z,4824.00
2023-05-24T10:54:00.530Z,4641.00
2023-05-24T10:55:03.899Z,4577.00
2023-05-24T10:56:00.458Z,4788.00
2023-05-24T10:57:00.348Z,4949.00
2023-05-24T10:58:00.253Z,5158.00
2023-05-24T10:59:00.254Z,5451.00
2023-05-24T11:00:00.709Z,5386.00
2023-05-24T11:01:00.082Z,5352.00
2023-05-24T11:02:00.077Z,5892.00
2023-05-24T11:02:59.945Z,6120.00
2023-05-24T11:03:59.895Z,4565.00
2023-05-24T11:04:59.888Z,3633.00
2023-05-24T11:05:59.800Z,3869.00
2023-05-24T11:06:59.734Z,2791.00
2023-05-24T11:07:59.690Z,2421.00
2023-05-24T11:08:59.657Z,2274.00
2023-05-24T11:09:59.559Z,2535.00
2023-05-24T11:11:08.615Z,2964.00
2023-05-24T11:11:59.454Z,2923.00
2023-05-24T11:12:59.372Z,4318.00
2023-05-24T11:14:00.254Z,2889.00
2023-05-24T11:14:59.278Z,2345.00
2023-05-24T11:15:59.215Z,4471.00
2023-05-24T11:16:59.753Z,4550.00
2023-05-24T11:17:59.068Z,3253.00
2023-05-24T11:18:58.953Z,5343.00
2023-05-24T11:19:58.937Z,3789.00
2023-05-24T11:20:58.860Z,3294.00
2023-05-24T11:21:59.411Z,4152.00
2023-05-24T11:22:58.813Z,2980.00
2023-05-24T11:23:58.735Z,2602.00
2023-05-24T11:24:58.646Z,2582.00
2023-05-24T11:25:58.564Z,2556.00
2023-05-24T11:26:58.502Z,2646.00
2023-05-24T11:28:00.032Z,2596.00
2023-05-24T11:29:04.062Z,2680.00
2023-05-24T11:29:59.054Z,2610.00
2023-05-24T11:30:59.984Z,2350.00
2023-05-24T11:31:58.852Z,3319.00
2023-05-24T11:32:58.159Z,3607.00
2023-05-24T11:33:58.097Z,3826.00
2023-05-24T11:34:57.995Z,4923.00
2023-05-24T11:35:57.965Z,5241.00
2023-05-24T11:36:57.880Z,4047.00
2023-05-24T11:37:57.843Z,3497.00
2023-05-24T11:38:58.720Z,3111.00
2023-05-24T11:39:57.728Z,2745.00
2023-05-24T11:40:57.655Z,2947.00
2023-05-24T11:41:57.590Z,2712.00
2023-05-24T11:42:57.504Z,2752.00
2023-05-24T11:43:57.455Z,2846.00
2023-05-24T11:44:57.400Z,3096.00
2023-05-24T11:45:57.368Z,3297.00
2023-05-24T11:46:57.332Z,3197.00
2023-05-24T11:47:58.007Z,3352.00
2023-05-24T11:48:58.476Z,3640.00
2023-05-24T11:49:57.083Z,3674.00
2023-05-24T11:50:57.046Z,3622.00
2023-05-24T11:51:56.938Z,3783.00
2023-05-24T11:52:57.054Z,3615.00
2023-05-24T11:53:56.834Z,3552.00
2023-05-24T11:54:56.807Z,3603.00
2023-05-24T11:55:56.696Z,3791.00
2023-05-24T11:56:56.697Z,3599.00
2023-05-24T11:57:56.632Z,3594.00
2023-05-24T11:58:57.962Z,3580.00
2023-05-24T11:59:56.505Z,3559.00
2023-05-24T12:00:56.442Z,3619.00
2023-05-24T12:01:56.445Z,3595.00
2023-05-24T12:02:57.083Z,3621.00
2023-05-24T12:03:56.404Z,3447.00
2023-05-24T12:04:56.204Z,1439.00
2023-05-24T12:05:56.102Z,8949.00
2023-05-24T12:06:56.111Z,4576.00
2023-05-24T12:07:55.997Z,4412.00
2023-05-24T12:08:55.945Z,3934.00
2023-05-24T12:09:55.860Z,3586.00
2023-05-24T12:10:56.486Z,2756.00
2023-05-24T12:11:55.733Z,5844.00
2023-05-24T12:12:55.688Z,4851.00
2023-05-24T12:13:55.604Z,3423.00
2023-05-24T12:14:55.633Z,3327.00
2023-05-24T12:15:56.774Z,3342.00
2023-05-24T12:16:55.456Z,3276.00
2023-05-24T12:17:55.460Z,3313.00
2023-05-24T12:19:05.445Z,3427.00
2023-05-24T12:19:55.280Z,3459.00
2023-05-24T12:20:55.263Z,3598.00
2023-05-24T12:21:55.722Z,3703.00
2023-05-24T12:22:55.121Z,3729.00
2023-05-24T12:23:55.003Z,3689.00
2023-05-24T12:24:54.935Z,3535.00
2023-05-24T12:25:54.936Z,3343.00
2023-05-24T12:26:54.836Z,3142.00
2023-05-24T12:27:54.797Z,2971.00
2023-05-24T12:28:54.746Z,2749.00
2023-05-24T12:29:54.713Z,1247.00